createdAt,value
2022-11-22T00:01:33.640Z,4.05
2022-11-22T00:04:35.567Z,4.11
2022-11-22T00:07:38.502Z,4.17
2022-11-22T00:10:40.497Z,4.20
2022-11-22T00:13:42.357Z,4.23
2022-11-22T00:16:44.964Z,4.27
2022-11-22T00:19:46.840Z,4.28
2022-11-22T00:22:48.887Z,4.26
2022-11-22T00:25:51.407Z,4.23
2022-11-22T00:28:53.271Z,4.25
2022-11-22T00:31:55.324Z,4.20
2022-11-22T00:34:57.447Z,4.18
2022-11-22T00:37:59.346Z,4.13
2022-11-22T00:41:01.478Z,4.15
2022-11-22T00:44:03.299Z,4.17
2022-11-22T00:47:05.012Z,4.25
2022-11-22T00:50:07.484Z,4.20
2022-11-22T00:53:09.278Z,4.06
2022-11-22T00:56:11.444Z,4.11
2022-11-22T00:59:13.517Z,4.12
2022-11-22T01:02:15.270Z,4.08
2022-11-22T01:05:20.519Z,4.06
2022-11-22T01:08:22.448Z,4.06
2022-11-22T01:11:25.349Z,4.05
2022-11-22T01:14:27.276Z,4.01
2022-11-22T01:17:29.022Z,3.94
2022-11-22T01:20:31.693Z,3.98
2022-11-22T01:23:34.645Z,3.88
2022-11-22T01:26:38.839Z,3.95
2022-11-22T01:29:40.899Z,3.89
2022-11-22T01:32:42.666Z,3.85
2022-11-22T01:35:45.074Z,3.97
2022-11-22T01:38:46.948Z,3.91
2022-11-22T01:41:48.781Z,3.96
2022-11-22T01:44:50.789Z,3.84
2022-11-22T01:47:52.995Z,3.82
2022-11-22T01:50:59.770Z,3.82
2022-11-22T01:54:05.555Z,3.79
2022-11-22T01:57:11.784Z,3.74
2022-11-22T02:00:16.957Z,3.84
2022-11-22T02:03:20.824Z,3.71
2022-11-22T02:06:23.627Z,3.77
2022-11-22T02:09:26.150Z,3.71
2022-11-22T02:12:29.414Z,3.79
2022-11-22T02:15:32.236Z,3.83
2022-11-22T02:18:38.644Z,3.81
2022-11-22T02:21:40.496Z,3.73
2022-11-22T02:25:11.716Z,3.70
2022-11-22T02:28:13.920Z,3.65
2022-11-22T02:31:34.332Z,3.66
2022-11-22T02:34:44.338Z,3.62
2022-11-22T02:37:46.853Z,3.63
2022-11-22T02:41:07.551Z,3.65
2022-11-22T02:44:10.548Z,3.56
2022-11-22T02:47:15.001Z,3.51
2022-11-22T02:50:16.879Z,3.40
2022-11-22T02:53:18.874Z,3.19
2022-11-22T02:56:20.619Z,3.16
2022-11-22T02:59:22.476Z,3.05
2022-11-22T03:02:24.365Z,3.03
2022-11-22T03:05:28.640Z,2.97
2022-11-22T03:08:30.747Z,2.94
2022-11-22T03:11:32.751Z,2.96
2022-11-22T03:14:34.605Z,2.93
2022-11-22T03:17:36.437Z,2.96
2022-11-22T03:20:38.111Z,3.04
2022-11-22T03:23:40.250Z,2.93
2022-11-22T03:26:42.066Z,3.05
2022-11-22T03:29:43.873Z,2.97
2022-11-22T03:32:45.649Z,2.92
2022-11-22T03:35:47.435Z,2.91
2022-11-22T03:38:50.651Z,2.89
2022-11-22T03:41:52.590Z,2.92
2022-11-22T03:44:54.267Z,2.92
2022-11-22T03:47:56.700Z,2.90
2022-11-22T03:51:05.830Z,2.71
2022-11-22T03:54:07.832Z,2.34
2022-11-22T03:57:09.691Z,2.30
2022-11-22T04:00:12.788Z,2.22
2022-11-22T04:03:14.445Z,2.02
2022-11-22T04:06:16.391Z,1.88
2022-11-22T04:09:18.340Z,1.76
2022-11-22T04:12:20.130Z,1.69
2022-11-22T04:15:22.283Z,1.69
2022-11-22T04:18:24.138Z,1.62
2022-11-22T04:21:34.946Z,1.52
2022-11-22T04:24:55.424Z,1.66
2022-11-22T04:27:57.746Z,1.58
2022-11-22T04:31:17.989Z,1.52
2022-11-22T04:34:19.871Z,1.48
2022-11-22T04:37:22.064Z,1.60
2022-11-22T04:40:23.808Z,1.53
2022-11-22T04:43:46.766Z,1.63
2022-11-22T04:46:48.475Z,1.77
2022-11-22T04:49:50.899Z,1.69
2022-11-22T04:52:59.532Z,1.60
2022-11-22T04:56:01.387Z,1.51
2022-11-22T04:59:03.200Z,1.51
2022-11-22T05:02:05.119Z,1.66
2022-11-22T05:05:07.420Z,1.80
2022-11-22T05:08:10.956Z,1.95
2022-11-22T05:11:13.572Z,1.91
2022-11-22T05:14:15.632Z,1.81
2022-11-22T05:17:17.538Z,1.73
2022-11-22T05:20:19.334Z,1.80
2022-11-22T05:23:41.100Z,1.85
2022-11-22T05:26:43.040Z,1.84
2022-11-22T05:29:44.954Z,1.92
2022-11-22T05:32:46.990Z,1.90
2022-11-22T05:35:48.796Z,1.88
2022-11-22T05:38:51.805Z,1.81
2022-11-22T05:41:56.749Z,1.95
2022-11-22T05:44:58.561Z,2.12
2022-11-22T05:48:00.592Z,2.05
2022-11-22T05:51:11.468Z,1.98
2022-11-22T05:54:13.405Z,1.82
2022-11-22T05:57:15.855Z,1.90
2022-11-22T06:00:18.597Z,1.84
2022-11-22T06:03:20.559Z,1.73
2022-11-22T06:06:23.129Z,1.49
2022-11-22T06:09:24.967Z,1.46
2022-11-22T06:12:27.342Z,1.45
2022-11-22T06:15:30.708Z,1.47
2022-11-22T06:18:33.631Z,1.42
2022-11-22T06:21:36.398Z,1.58
2022-11-22T06:24:38.349Z,1.77
2022-11-22T06:27:40.654Z,1.56
2022-11-22T06:30:43.038Z,1.72
2022-11-22T06:33:45.436Z,1.96
2022-11-22T06:36:47.404Z,2.15
2022-11-22T06:39:50.295Z,2.09
2022-11-22T06:42:52.372Z,2.21
2022-11-22T06:45:58.734Z,2.36
2022-11-22T06:49:00.840Z,2.46
2022-11-22T06:52:02.692Z,2.61
2022-11-22T06:55:07.959Z,2.64
2022-11-22T06:58:10.488Z,2.70
2022-11-22T07:01:17.933Z,2.70
2022-11-22T07:04:20.187Z,2.73
2022-11-22T07:07:22.058Z,2.83
2022-11-22T07:10:24.583Z,2.82
2022-11-22T07:13:27.232Z,2.93
2022-11-22T07:16:29.507Z,2.98
2022-11-22T07:19:32.015Z,3.06
2022-11-22T07:22:36.476Z,3.12
2022-11-22T07:25:38.313Z,3.17
2022-11-22T07:28:42.312Z,3.20
2022-11-22T07:31:46.530Z,3.30
2022-11-22T07:34:49.018Z,3.34
2022-11-22T07:37:51.816Z,3.45
2022-11-22T07:40:53.589Z,3.47
2022-11-22T07:43:56.130Z,3.50
2022-11-22T07:46:58.029Z,3.50
2022-11-22T07:49:59.891Z,3.58
2022-11-22T07:53:02.143Z,3.71
2022-11-22T07:56:05.157Z,3.69
2022-11-22T07:59:07.339Z,3.65
2022-11-22T08:02:12.343Z,3.71
2022-11-22T08:05:14.572Z,3.80
2022-11-22T08:08:16.524Z,3.86
2022-11-22T08:11:18.384Z,3.94
2022-11-22T08:14:20.599Z,4.08
2022-11-22T08:17:22.577Z,4.15
2022-11-22T08:20:24.484Z,4.15
2022-11-22T08:23:27.420Z,4.20
2022-11-22T08:26:29.817Z,4.25
2022-11-22T08:29:32.177Z,4.22
2022-11-22T08:32:34.860Z,4.29
2022-11-22T08:35:36.823Z,4.31
2022-11-22T08:38:39.553Z,4.29
2022-11-22T08:41:41.453Z,4.38
2022-11-22T08:44:43.432Z,4.46
2022-11-22T08:47:45.896Z,4.50
2022-11-22T08:50:58.801Z,4.48
2022-11-22T08:54:00.691Z,4.46
2022-11-22T08:57:03.210Z,4.47
2022-11-22T09:00:07.100Z,4.45
2022-11-22T09:03:09.437Z,4.50
2022-11-22T09:09:37.997Z,4.62
2022-11-22T09:12:44.495Z,4.63
2022-11-22T09:15:46.911Z,4.72
2022-11-22T09:18:49.092Z,4.74
2022-11-22T09:21:51.433Z,4.78
2022-11-22T09:24:53.748Z,4.81
2022-11-22T09:27:56.585Z,4.80
2022-11-22T09:31:02.853Z,4.83
2022-11-22T09:34:05.711Z,4.90
2022-11-22T09:37:10.007Z,5.07
2022-11-22T09:40:13.757Z,5.04
2022-11-22T09:43:22.401Z,5.14
2022-11-22T09:46:42.756Z,5.21
2022-11-22T09:50:06.732Z,5.22
2022-11-22T09:53:26.333Z,5.16
2022-11-22T09:56:32.281Z,5.19
2022-11-22T09:59:37.183Z,5.07
2022-11-22T10:02:59.435Z,5.11
2022-11-22T10:06:07.347Z,5.33
2022-11-22T10:09:37.325Z,5.45
2022-11-22T10:12:46.490Z,5.51
2022-11-22T10:16:01.349Z,5.51
2022-11-22T10:19:29.909Z,5.53
2022-11-22T10:22:35.905Z,5.77
2022-11-22T10:25:48.574Z,5.54
2022-11-22T10:29:08.757Z,5.37
2022-11-22T10:32:32.841Z,5.28
2022-11-22T10:35:37.516Z,5.20
2022-11-22T10:39:18.408Z,5.34
2022-11-22T10:42:29.659Z,5.14
2022-11-22T10:45:36.750Z,5.25
2022-11-22T10:49:01.232Z,5.14
2022-11-22T10:52:16.489Z,5.56
2022-11-22T10:55:22.395Z,5.70
2022-11-22T10:59:02.111Z,5.57
2022-11-22T11:02:13.020Z,5.81
2022-11-22T11:05:19.519Z,6.08
2022-11-22T11:09:02.574Z,6.15
2022-11-22T11:11:58.769Z,6.10
2022-11-22T11:15:04.724Z,6.16
2022-11-22T11:18:14.626Z,6.36
2022-11-22T11:21:16.901Z,6.29
2022-11-22T11:24:19.889Z,6.40
2022-11-22T11:27:22.516Z,6.40
2022-11-22T11:30:24.592Z,6.57
2022-11-22T11:33:38.774Z,6.49
2022-11-22T11:36:40.779Z,6.48
2022-11-22T11:39:46.254Z,6.44
2022-11-22T11:42:48.413Z,6.29
2022-11-22T11:45:50.909Z,6.39
2022-11-22T11:48:55.253Z,6.28
2022-11-22T11:52:08.828Z,6.26
2022-11-22T11:55:16.757Z,6.27
2022-11-22T11:58:22.325Z,6.35
2022-11-22T12:01:25.701Z,6.40
2022-11-22T12:04:30.517Z,6.32
2022-11-22T12:07:36.078Z,6.23
2022-11-22T12:10:47.697Z,6.17
2022-11-22T12:14:19.708Z,6.17
2022-11-22T12:17:27.818Z,6.09
2022-11-22T12:20:44.264Z,6.16
2022-11-22T12:24:41.028Z,6.15
2022-11-22T12:27:31.066Z,6.11
2022-11-22T12:30:33.482Z,6.11
2022-11-22T12:33:44.118Z,6.13
2022-11-22T12:37:18.182Z,6.04
2022-11-22T12:40:37.908Z,6.16
2022-11-22T12:43:57.781Z,6.13
2022-11-22T12:47:03.495Z,6.19
2022-11-22T12:50:15.720Z,6.17
2022-11-22T12:53:30.988Z,6.31
2022-11-22T12:57:12.007Z,6.38
2022-11-22T13:00:18.711Z,6.38
2022-11-22T13:03:30.654Z,6.34
2022-11-22T13:06:48.298Z,6.35
2022-11-22T13:09:59.477Z,6.40
2022-11-22T13:13:03.863Z,6.42
2022-11-22T13:16:11.068Z,6.39
2022-11-22T13:19:15.562Z,6.28
2022-11-22T13:22:29.775Z,6.36
2022-11-22T13:25:40.426Z,6.31
2022-11-22T13:28:42.810Z,6.28
2022-11-22T13:32:07.018Z,6.26
2022-11-22T13:35:12.326Z,6.21
2022-11-22T13:38:18.278Z,6.19
2022-11-22T13:41:26.424Z,6.22
2022-11-22T13:44:36.121Z,6.07
2022-11-22T13:47:41.008Z,6.08
2022-11-22T13:50:45.642Z,6.05
2022-11-22T13:53:49.463Z,5.96
2022-11-22T13:57:01.108Z,5.93
2022-11-22T14:00:13.098Z,5.99
2022-11-22T14:03:35.067Z,6.05
2022-11-22T14:06:37.264Z,6.09
2022-11-22T14:09:59.248Z,6.05
2022-11-22T14:13:12.286Z,6.03
2022-11-22T14:16:37.198Z,5.94
2022-11-22T14:19:47.781Z,5.88
2022-11-22T14:23:15.451Z,5.95
2022-11-22T14:26:39.432Z,5.94
2022-11-22T14:30:03.716Z,5.90
2022-11-22T14:33:14.294Z,5.93
2022-11-22T14:36:16.952Z,5.86
2022-11-22T14:39:56.589Z,5.86
2022-11-22T14:43:24.578Z,5.78
2022-11-22T14:46:52.239Z,5.74
2022-11-22T14:49:55.514Z,5.67
2022-11-22T14:53:00.104Z,5.62
2022-11-22T14:56:23.077Z,5.54
2022-11-22T14:59:58.720Z,5.48
2022-11-22T15:03:21.594Z,5.45
2022-11-22T15:09:18.605Z,5.43
2022-11-22T15:09:56.675Z,5.48
2022-11-22T15:13:30.260Z,5.51
2022-11-22T15:58:01.450Z,5.73
2022-11-22T16:01:18.969Z,5.68
2022-11-22T16:04:29.641Z,5.68
2022-11-22T16:07:37.528Z,5.64
2022-11-22T16:10:42.964Z,5.60
2022-11-22T16:13:45.329Z,5.62
2022-11-22T16:16:47.501Z,5.57
2022-11-22T16:19:50.384Z,5.55
2022-11-22T16:23:12.257Z,5.54
2022-11-22T16:26:22.388Z,5.49
2022-11-22T16:29:32.358Z,5.55
2022-11-22T16:32:35.983Z,5.46
2022-11-22T16:35:39.305Z,5.47
2022-11-22T16:38:43.003Z,5.40
2022-11-22T16:44:47.937Z,5.30
2022-11-22T16:48:24.097Z,5.29
2022-11-22T16:51:24.244Z,5.29
2022-11-22T16:54:28.794Z,5.31
2022-11-22T16:57:30.773Z,5.28
2022-11-22T17:00:36.150Z,5.35
2022-11-22T17:03:39.107Z,5.38
2022-11-22T17:06:44.327Z,5.37
2022-11-22T17:09:47.095Z,5.44
2022-11-22T17:12:49.784Z,5.32
2022-11-22T17:15:53.867Z,5.38
2022-11-22T17:18:56.335Z,5.35
2022-11-22T17:21:59.387Z,5.44
2022-11-22T17:25:01.852Z,5.39
2022-11-22T17:28:05.036Z,5.39
2022-11-22T17:31:14.019Z,5.37
2022-11-22T17:34:16.585Z,5.24
2022-11-22T17:37:18.868Z,5.29
2022-11-22T17:40:22.650Z,5.21
2022-11-22T17:43:25.736Z,5.14
2022-11-22T17:46:31.700Z,5.13
2022-11-22T17:49:35.199Z,5.06
2022-11-22T17:52:38.039Z,5.06
2022-11-22T17:56:08.928Z,5.02
2022-11-22T17:59:03.240Z,5.00
2022-11-22T18:02:05.661Z,4.98
2022-11-22T18:05:10.086Z,4.85
2022-11-22T18:08:12.337Z,4.70
2022-11-22T18:11:16.958Z,4.68
2022-11-22T18:14:19.777Z,4.68
2022-11-22T18:17:23.490Z,4.70
2022-11-22T18:20:26.195Z,4.74
2022-11-22T18:23:32.620Z,4.71
2022-11-22T18:26:39.989Z,4.74
2022-11-22T18:29:43.571Z,4.76
2022-11-22T18:32:46.346Z,4.76
2022-11-22T18:35:56.344Z,4.67
2022-11-22T18:39:00.203Z,4.63
2022-11-22T18:42:03.643Z,4.63
2022-11-22T18:45:06.892Z,4.64
2022-11-22T18:48:09.691Z,4.51
2022-11-22T18:51:12.751Z,4.49
2022-11-22T18:54:15.434Z,4.57
2022-11-22T18:57:17.775Z,4.62
2022-11-22T19:00:21.666Z,4.62
2022-11-22T19:03:24.473Z,4.60
2022-11-22T19:06:27.391Z,4.64
2022-11-22T19:09:30.006Z,4.65
2022-11-22T19:12:32.693Z,4.64
2022-11-22T19:15:35.760Z,4.56
2022-11-22T19:18:43.103Z,4.59
2022-11-22T19:21:49.265Z,4.49
2022-11-22T19:24:52.699Z,4.51
2022-11-22T19:27:55.093Z,4.54
2022-11-22T19:31:09.885Z,4.49
2022-11-22T19:34:13.025Z,4.57
2022-11-22T19:37:15.218Z,4.60
2022-11-22T19:40:17.903Z,4.62
2022-11-22T19:43:20.986Z,4.67
2022-11-22T19:46:23.808Z,4.65
2022-11-22T19:49:26.600Z,4.53
2022-11-22T19:52:28.838Z,4.50
2022-11-22T19:55:34.421Z,4.55
2022-11-22T19:58:36.898Z,4.56
2022-11-22T20:01:40.164Z,4.61
2022-11-22T20:04:42.911Z,4.62
2022-11-22T20:07:45.696Z,4.62
2022-11-22T20:10:47.961Z,4.59
2022-11-22T20:13:51.905Z,4.62
2022-11-22T20:16:54.633Z,4.49
2022-11-22T20:19:57.530Z,4.56
2022-11-22T20:22:59.658Z,4.49
2022-11-22T20:26:03.850Z,4.49
2022-11-22T20:29:07.949Z,4.45
2022-11-22T20:32:12.033Z,4.44
2022-11-22T20:35:14.644Z,4.41
2022-11-22T20:38:17.699Z,4.55
2022-11-22T20:41:22.089Z,4.63
2022-11-22T20:44:25.836Z,4.60
2022-11-22T20:47:28.523Z,4.55
2022-11-22T20:50:30.377Z,4.55
2022-11-22T20:53:33.265Z,4.55
2022-11-22T20:56:36.029Z,4.63
2022-11-22T20:59:38.097Z,4.63
2022-11-22T21:02:40.338Z,4.59
2022-11-22T21:05:45.148Z,4.60
2022-11-22T21:08:47.218Z,4.59
2022-11-22T21:11:49.489Z,4.50
2022-11-22T21:14:53.876Z,4.40
2022-11-22T21:18:23.528Z,4.48
2022-11-22T21:21:23.134Z,4.48
2022-11-22T21:24:25.696Z,4.44
2022-11-22T21:27:27.832Z,4.50
2022-11-22T21:30:29.741Z,4.54
2022-11-22T21:33:33.681Z,4.45
2022-11-22T21:36:35.730Z,4.38
2022-11-22T21:39:38.838Z,4.37
2022-11-22T21:42:44.837Z,4.42
2022-11-22T21:45:47.433Z,4.38
2022-11-22T21:48:51.230Z,4.42
2022-11-22T21:51:55.504Z,4.45
2022-11-22T21:54:57.636Z,4.36
2022-11-22T21:57:59.641Z,4.31
2022-11-22T22:01:05.460Z,4.34
2022-11-22T22:04:20.700Z,4.25
2022-11-22T22:07:50.699Z,4.21
2022-11-22T22:10:48.131Z,4.25
2022-11-22T22:13:52.904Z,4.23
2022-11-22T22:16:56.903Z,4.19
2022-11-22T22:19:58.651Z,4.18
2022-11-22T22:23:00.550Z,4.07
2022-11-22T22:26:04.736Z,4.08
2022-11-22T22:29:06.888Z,4.04
2022-11-22T22:32:10.814Z,4.09
2022-11-22T22:35:13.013Z,4.06
2022-11-22T22:38:17.371Z,4.07
2022-11-22T22:41:19.358Z,4.05
2022-11-22T22:44:21.133Z,4.08
2022-11-22T22:47:23.021Z,4.08
2022-11-22T22:50:24.971Z,4.16
2022-11-22T22:53:26.859Z,3.97
2022-11-22T22:56:32.020Z,3.99
2022-11-22T22:59:34.008Z,4.03
2022-11-22T23:02:36.983Z,4.02
2022-11-22T23:05:39.790Z,4.04
2022-11-22T23:08:44.697Z,3.95
2022-11-22T23:12:05.000Z,3.94
2022-11-22T23:15:07.463Z,3.84
2022-11-22T23:18:09.691Z,3.83
2022-11-22T23:21:14.472Z,3.82
2022-11-22T23:24:16.655Z,3.70
2022-11-22T23:27:18.573Z,3.66
2022-11-22T23:30:20.360Z,3.64
2022-11-22T23:33:22.321Z,3.58
2022-11-22T23:36:24.130Z,3.54
2022-11-22T23:39:25.928Z,3.51
2022-11-22T23:42:27.834Z,3.49
2022-11-22T23:45:29.595Z,3.53
2022-11-22T23:48:31.452Z,3.57
2022-11-22T23:51:34.104Z,3.58
2022-11-22T23:54:35.969Z,3.50
2022-11-22T23:57:37.745Z,3.47
